sensor_id;sensor_type;location;lat;lon;timestamp;temperature;humidity
14210;DHT22;7188;56.070;12.698;2022-10-28T00:00:53;14.10;99.90
14210;DHT22;7188;56.070;12.698;2022-10-28T00:03:20;14.10;99.90
14210;DHT22;7188;56.070;12.698;2022-10-28T00:05:46;14.10;99.90
14210;DHT22;7188;56.070;12.698;2022-10-28T00:08:12;14.10;99.90
14210;DHT22;7188;56.070;12.698;2022-10-28T00:10:38;14.10;99.90
14210;DHT22;7188;56.070;12.698;2022-10-28T00:13:03;14.00;99.90
14210;DHT22;7188;56.070;12.698;2022-10-28T00:15:29;14.00;99.90
14210;DHT22;7188;56.070;12.698;2022-10-28T00:17:55;14.00;99.90
14210;DHT22;7188;56.070;12.698;2022-10-28T00:20:21;14.00;99.90
14210;DHT22;7188;56.070;12.698;2022-10-28T00:22:46;13.90;99.90
14210;DHT22;7188;56.070;12.698;2022-10-28T00:25:12;14.00;99.90
14210;DHT22;7188;56.070;12.698;2022-10-28T00:27:37;13.90;99.90
14210;DHT22;7188;56.070;12.698;2022-10-28T00:30:03;13.90;99.90
14210;DHT22;7188;56.070;12.698;2022-10-28T00:32:30;13.90;99.90
14210;DHT22;7188;56.070;12.698;2022-10-28T00:34:56;13.90;99.90
14210;DHT22;7188;56.070;12.698;2022-10-28T00:37:23;13.90;99.90
14210;DHT22;7188;56.070;12.698;2022-10-28T00:39:49;13.90;99.90
14210;DHT22;7188;56.070;12.698;2022-10-28T00:42:18;13.90;99.90
14210;DHT22;7188;56.070;12.698;2022-10-28T00:44:57;13.90;99.90
14210;DHT22;7188;56.070;12.698;2022-10-28T00:47:46;13.90;99.90
14210;DHT22;7188;56.070;12.698;2022-10-28T00:50:46;13.90;99.90
14210;DHT22;7188;56.070;12.698;2022-10-28T00:53:20;13.90;99.90
14210;DHT22;7188;56.070;12.698;2022-10-28T00:55:47;13.90;99.90
14210;DHT22;7188;56.070;12.698;2022-10-28T00:58:14;13.90;99.90
14210;DHT22;7188;56.070;12.698;2022-10-28T01:00:41;13.90;99.90
14210;DHT22;7188;56.070;12.698;2022-10-28T01:03:07;13.90;99.90
14210;DHT22;7188;56.070;12.698;2022-10-28T01:05:35;13.90;99.90
14210;DHT22;7188;56.070;12.698;2022-10-28T01:08:05;13.90;99.90
14210;DHT22;7188;56.070;12.698;2022-10-28T01:10:43;13.90;99.90
14210;DHT22;7188;56.070;12.698;2022-10-28T01:13:48;13.90;99.90
14210;DHT22;7188;56.070;12.698;2022-10-28T01:18:57;13.80;99.90
14210;DHT22;7188;56.070;12.698;2022-10-28T01:33:30;13.70;99.90
14210;DHT22;7188;56.070;12.698;2022-10-28T01:36:02;13.80;99.90
14210;DHT22;7188;56.070;12.698;2022-10-28T01:38:46;13.70;99.90
14210;DHT22;7188;56.070;12.698;2022-10-28T01:41:37;13.80;99.90
14210;DHT22;7188;56.070;12.698;2022-10-28T01:47:11;13.80;99.90
14210;DHT22;7188;56.070;12.698;2022-10-28T01:52:12;13.80;99.90
14210;DHT22;7188;56.070;12.698;2022-10-28T01:54:41;13.80;99.90
14210;DHT22;7188;56.070;12.698;2022-10-28T01:57:08;13.70;99.90
14210;DHT22;7188;56.070;12.698;2022-10-28T01:59:35;13.80;99.90
14210;DHT22;7188;56.070;12.698;2022-10-28T02:02:02;13.80;99.90
14210;DHT22;7188;56.070;12.698;2022-10-28T02:04:28;13.70;99.90
14210;DHT22;7188;56.070;12.698;2022-10-28T02:06:55;13.80;99.90
14210;DHT22;7188;56.070;12.698;2022-10-28T02:09:31;13.80;99.90
14210;DHT22;7188;56.070;12.698;2022-10-28T02:12:21;13.80;99.90
14210;DHT22;7188;56.070;12.698;2022-10-28T02:17:42;13.70;99.90
14210;DHT22;7188;56.070;12.698;2022-10-28T02:22:56;13.70;99.90
14210;DHT22;7188;56.070;12.698;2022-10-28T02:25:34;13.70;99.90
14210;DHT22;7188;56.070;12.698;2022-10-28T02:28:08;13.70;99.90
14210;DHT22;7188;56.070;12.698;2022-10-28T02:30:43;13.70;99.90
14210;DHT22;7188;56.070;12.698;2022-10-28T02:33:12;13.70;99.90
14210;DHT22;7188;56.070;12.698;2022-10-28T02:35:54;13.60;99.90
14210;DHT22;7188;56.070;12.698;2022-10-28T02:38:37;13.60;99.90
14210;DHT22;7188;56.070;12.698;2022-10-28T02:41:49;13.60;99.90
14210;DHT22;7188;56.070;12.698;2022-10-28T02:43:59;13.60;99.90
14210;DHT22;7188;56.070;12.698;2022-10-28T02:46:27;13.50;99.90
14210;DHT22;7188;56.070;12.698;2022-10-28T02:48:57;13.50;99.90
14210;DHT22;7188;56.070;12.698;2022-10-28T02:51:36;13.40;99.90
14210;DHT22;7188;56.070;12.698;2022-10-28T02:59:12;13.40;99.90
14210;DHT22;7188;56.070;12.698;2022-10-28T03:01:38;13.40;99.90
14210;DHT22;7188;56.070;12.698;2022-10-28T03:04:04;13.30;99.90
14210;DHT22;7188;56.070;12.698;2022-10-28T03:06:30;13.30;99.90
14210;DHT22;7188;56.070;12.698;2022-10-28T03:08:56;13.30;99.90
14210;DHT22;7188;56.070;12.698;2022-10-28T03:11:21;13.20;99.90
14210;DHT22;7188;56.070;12.698;2022-10-28T03:13:47;13.30;99.90
14210;DHT22;7188;56.070;12.698;2022-10-28T03:16:12;13.20;99.90
14210;DHT22;7188;56.070;12.698;2022-10-28T03:18:38;13.20;99.90
14210;DHT22;7188;56.070;12.698;2022-10-28T03:21:04;13.20;99.90
14210;DHT22;7188;56.070;12.698;2022-10-28T03:23:29;13.20;99.90
14210;DHT22;7188;56.070;12.698;2022-10-28T03:25:55;13.10;99.90
14210;DHT22;7188;56.070;12.698;2022-10-28T03:28:20;13.10;99.90
14210;DHT22;7188;56.070;12.698;2022-10-28T03:30:46;13.10;99.90
14210;DHT22;7188;56.070;12.698;2022-10-28T03:33:11;13.10;99.90
14210;DHT22;7188;56.070;12.698;2022-10-28T03:35:37;13.10;99.90
14210;DHT22;7188;56.070;12.698;2022-10-28T03:38:03;13.00;99.90
14210;DHT22;7188;56.070;12.698;2022-10-28T03:40:28;13.00;99.90
14210;DHT22;7188;56.070;12.698;2022-10-28T03:42:54;13.10;99.90
14210;DHT22;7188;56.070;12.698;2022-10-28T03:45:19;13.00;99.90
14210;DHT22;7188;56.070;12.698;2022-10-28T03:47:45;13.00;99.90
14210;DHT22;7188;56.070;12.698;2022-10-28T03:50:10;13.00;99.90
14210;DHT22;7188;56.070;12.698;2022-10-28T03:52:36;13.00;99.90
14210;DHT22;7188;56.070;12.698;2022-10-28T03:55:02;13.00;99.90
14210;DHT22;7188;56.070;12.698;2022-10-28T03:57:32;13.00;99.90
14210;DHT22;7188;56.070;12.698;2022-10-28T03:59:57;13.10;99.90
14210;DHT22;7188;56.070;12.698;2022-10-28T04:02:23;13.10;99.90
14210;DHT22;7188;56.070;12.698;2022-10-28T04:04:49;13.10;99.90
14210;DHT22;7188;56.070;12.698;2022-10-28T04:07:14;13.10;99.90
14210;DHT22;7188;56.070;12.698;2022-10-28T04:09:40;13.20;99.90
14210;DHT22;7188;56.070;12.698;2022-10-28T04:12:06;13.20;99.90
14210;DHT22;7188;56.070;12.698;2022-10-28T04:14:31;13.20;99.90
14210;DHT22;7188;56.070;12.698;2022-10-28T04:16:57;13.10;99.90
14210;DHT22;7188;56.070;12.698;2022-10-28T04:19:23;13.20;99.90
14210;DHT22;7188;56.070;12.698;2022-10-28T04:21:48;13.20;99.90
14210;DHT22;7188;56.070;12.698;2022-10-28T04:24:14;13.20;99.90
14210;DHT22;7188;56.070;12.698;2022-10-28T04:26:39;13.20;99.90
14210;DHT22;7188;56.070;12.698;2022-10-28T04:29:05;13.20;99.90
14210;DHT22;7188;56.070;12.698;2022-10-28T04:31:31;13.20;99.90
14210;DHT22;7188;56.070;12.698;2022-10-28T04:33:56;13.20;99.90
14210;DHT22;7188;56.070;12.698;2022-10-28T04:36:22;13.10;99.90
14210;DHT22;7188;56.070;12.698;2022-10-28T04:38:47;13.10;99.90
14210;DHT22;7188;56.070;12.698;2022-10-28T04:41:16;13.10;99.90
14210;DHT22;7188;56.070;12.698;2022-10-28T04:43:41;13.00;99.90
14210;DHT22;7188;56.070;12.698;2022-10-28T04:46:07;13.00;99.90
14210;DHT22;7188;56.070;12.698;2022-10-28T04:48:33;13.00;99.90
14210;DHT22;7188;56.070;12.698;2022-10-28T04:50:59;13.00;99.90
14210;DHT22;7188;56.070;12.698;2022-10-28T04:53:24;12.90;99.90
14210;DHT22;7188;56.070;12.698;2022-10-28T04:55:58;12.90;99.90
14210;DHT22;7188;56.070;12.698;2022-10-28T04:58:25;12.90;99.90
14210;DHT22;7188;56.070;12.698;2022-10-28T05:00:50;12.90;99.90
14210;DHT22;7188;56.070;12.698;2022-10-28T05:03:16;12.80;99.90
14210;DHT22;7188;56.070;12.698;2022-10-28T05:05:42;12.80;99.90
14210;DHT22;7188;56.070;12.698;2022-10-28T05:08:07;12.80;99.90
14210;DHT22;7188;56.070;12.698;2022-10-28T05:10:33;12.70;99.90
14210;DHT22;7188;56.070;12.698;2022-10-28T05:12:59;12.70;99.90
14210;DHT22;7188;56.070;12.698;2022-10-28T05:15:24;12.70;99.90
14210;DHT22;7188;56.070;12.698;2022-10-28T05:17:53;12.70;99.90
14210;DHT22;7188;56.070;12.698;2022-10-28T05:20:19;12.60;99.90
14210;DHT22;7188;56.070;12.698;2022-10-28T05:22:52;12.50;99.90
14210;DHT22;7188;56.070;12.698;2022-10-28T05:25:20;12.50;99.90
14210;DHT22;7188;56.070;12.698;2022-10-28T05:27:46;12.50;99.90
14210;DHT22;7188;56.070;12.698;2022-10-28T05:30:12;12.50;99.90
14210;DHT22;7188;56.070;12.698;2022-10-28T05:32:38;12.50;99.90
14210;DHT22;7188;56.070;12.698;2022-10-28T05:35:08;12.50;99.90
14210;DHT22;7188;56.070;12.698;2022-10-28T05:37:33;12.50;99.90
14210;DHT22;7188;56.070;12.698;2022-10-28T05:39:59;12.50;99.90
14210;DHT22;7188;56.070;12.698;2022-10-28T05:42:24;12.50;99.90
14210;DHT22;7188;56.070;12.698;2022-10-28T05:44:50;12.50;99.90
14210;DHT22;7188;56.070;12.698;2022-10-28T05:47:16;12.40;99.90
14210;DHT22;7188;56.070;12.698;2022-10-28T05:49:41;12.50;99.90
14210;DHT22;7188;56.070;12.698;2022-10-28T05:52:10;12.50;99.90
14210;DHT22;7188;56.070;12.698;2022-10-28T05:54:35;12.50;99.90
14210;DHT22;7188;56.070;12.698;2022-10-28T05:57:01;12.40;99.90
14210;DHT22;7188;56.070;12.698;2022-10-28T05:59:27;12.40;99.90
14210;DHT22;7188;56.070;12.698;2022-10-28T06:01:52;12.50;99.90
14210;DHT22;7188;56.070;12.698;2022-10-28T06:04:18;12.50;99.90
14210;DHT22;7188;56.070;12.698;2022-10-28T06:06:43;12.50;99.90
14210;DHT22;7188;56.070;12.698;2022-10-28T06:09:09;12.50;99.90
14210;DHT22;7188;56.070;12.698;2022-10-28T06:11:34;12.50;99.90
14210;DHT22;7188;56.070;12.698;2022-10-28T06:14:00;12.60;99.90
14210;DHT22;7188;56.070;12.698;2022-10-28T06:16:26;12.60;99.90
14210;DHT22;7188;56.070;12.698;2022-10-28T06:18:51;12.70;99.90
14210;DHT22;7188;56.070;12.698;2022-10-28T06:21:17;12.70;99.90
14210;DHT22;7188;56.070;12.698;2022-10-28T06:23:43;12.70;99.90
14210;DHT22;7188;56.070;12.698;2022-10-28T06:26:09;12.70;99.90
14210;DHT22;7188;56.070;12.698;2022-10-28T06:28:34;12.80;99.90
14210;DHT22;7188;56.070;12.698;2022-10-28T06:31:02;12.80;99.90
14210;DHT22;7188;56.070;12.698;2022-10-28T06:33:28;12.80;99.90
14210;DHT22;7188;56.070;12.698;2022-10-28T06:35:57;12.90;99.90
14210;DHT22;7188;56.070;12.698;2022-10-28T06:38:24;13.00;99.90
14210;DHT22;7188;56.070;12.698;2022-10-28T06:40:49;13.00;99.90
14210;DHT22;7188;56.070;12.698;2022-10-28T06:43:15;13.00;99.90
14210;DHT22;7188;56.070;12.698;2022-10-28T06:45:41;12.90;99.90
14210;DHT22;7188;56.070;12.698;2022-10-28T06:48:08;12.90;99.90
14210;DHT22;7188;56.070;12.698;2022-10-28T06:50:34;12.90;99.90
14210;DHT22;7188;56.070;12.698;2022-10-28T06:53:01;12.90;99.90
14210;DHT22;7188;56.070;12.698;2022-10-28T06:55:27;12.90;99.90
14210;DHT22;7188;56.070;12.698;2022-10-28T06:57:53;12.90;99.90
14210;DHT22;7188;56.070;12.698;2022-10-28T07:00:22;13.00;99.90
14210;DHT22;7188;56.070;12.698;2022-10-28T07:02:52;12.90;99.90
14210;DHT22;7188;56.070;12.698;2022-10-28T07:05:19;12.90;99.90
14210;DHT22;7188;56.070;12.698;2022-10-28T07:07:45;13.00;99.90
14210;DHT22;7188;56.070;12.698;2022-10-28T07:10:13;12.90;99.90
14210;DHT22;7188;56.070;12.698;2022-10-28T07:12:40;12.90;99.90
14210;DHT22;7188;56.070;12.698;2022-10-28T07:15:06;13.00;99.90
14210;DHT22;7188;56.070;12.698;2022-10-28T07:17:32;13.00;99.90
14210;DHT22;7188;56.070;12.698;2022-10-28T07:19:57;13.00;99.90
14210;DHT22;7188;56.070;12.698;2022-10-28T07:22:23;13.00;99.90
14210;DHT22;7188;56.070;12.698;2022-10-28T07:24:49;13.00;99.90
14210;DHT22;7188;56.070;12.698;2022-10-28T07:27:14;13.10;99.90
14210;DHT22;7188;56.070;12.698;2022-10-28T07:29:40;13.10;99.90
14210;DHT22;7188;56.070;12.698;2022-10-28T07:32:06;13.10;99.90
14210;DHT22;7188;56.070;12.698;2022-10-28T07:34:31;13.10;99.90
14210;DHT22;7188;56.070;12.698;2022-10-28T07:36:57;13.10;99.90
14210;DHT22;7188;56.070;12.698;2022-10-28T07:39:22;13.20;99.90
14210;DHT22;7188;56.070;12.698;2022-10-28T07:41:48;13.20;99.90
14210;DHT22;7188;56.070;12.698;2022-10-28T07:44:14;13.30;99.90
14210;DHT22;7188;56.070;12.698;2022-10-28T07:46:40;13.20;99.90
14210;DHT22;7188;56.070;12.698;2022-10-28T07:49:05;13.20;99.90
14210;DHT22;7188;56.070;12.698;2022-10-28T07:51:31;13.20;99.90
14210;DHT22;7188;56.070;12.698;2022-10-28T07:53:57;13.30;99.90
14210;DHT22;7188;56.070;12.698;2022-10-28T07:56:24;13.30;99.90
14210;DHT22;7188;56.070;12.698;2022-10-28T07:58:49;13.40;99.90
14210;DHT22;7188;56.070;12.698;2022-10-28T08:01:20;13.40;99.90
14210;DHT22;7188;56.070;12.698;2022-10-28T08:03:46;13.40;99.90
14210;DHT22;7188;56.070;12.698;2022-10-28T08:06:17;13.50;99.90
14210;DHT22;7188;56.070;12.698;2022-10-28T08:08:45;13.50;99.90
14210;DHT22;7188;56.070;12.698;2022-10-28T08:11:12;13.60;99.90
14210;DHT22;7188;56.070;12.698;2022-10-28T08:13:38;13.60;99.90
14210;DHT22;7188;56.070;12.698;2022-10-28T08:16:04;13.60;99.90
14210;DHT22;7188;56.070;12.698;2022-10-28T08:18:30;13.60;99.90
14210;DHT22;7188;56.070;12.698;2022-10-28T08:21:00;13.60;99.90
14210;DHT22;7188;56.070;12.698;2022-10-28T08:23:26;13.60;99.90
14210;DHT22;7188;56.070;12.698;2022-10-28T08:25:52;13.70;99.90
14210;DHT22;7188;56.070;12.698;2022-10-28T08:28:18;13.80;99.90
14210;DHT22;7188;56.070;12.698;2022-10-28T08:30:44;13.80;99.90
14210;DHT22;7188;56.070;12.698;2022-10-28T08:33:11;13.90;99.90
14210;DHT22;7188;56.070;12.698;2022-10-28T08:35:37;13.90;99.90
14210;DHT22;7188;56.070;12.698;2022-10-28T08:38:03;14.00;99.90
14210;DHT22;7188;56.070;12.698;2022-10-28T08:40:56;14.10;99.90
14210;DHT22;7188;56.070;12.698;2022-10-28T08:43:33;14.10;99.90
14210;DHT22;7188;56.070;12.698;2022-10-28T08:46:24;14.10;99.90
14210;DHT22;7188;56.070;12.698;2022-10-28T08:48:54;14.20;99.90
14210;DHT22;7188;56.070;12.698;2022-10-28T08:54:33;14.20;99.90
14210;DHT22;7188;56.070;12.698;2022-10-28T08:57:01;14.20;99.90
14210;DHT22;7188;56.070;12.698;2022-10-28T08:59:35;14.30;99.90
14210;DHT22;7188;56.070;12.698;2022-10-28T09:04:44;14.40;99.90
14210;DHT22;7188;56.070;12.698;2022-10-28T09:07:19;14.50;99.90
14210;DHT22;7188;56.070;12.698;2022-10-28T09:09:47;14.60;99.90
14210;DHT22;7188;56.070;12.698;2022-10-28T09:17:17;14.60;99.90
14210;DHT22;7188;56.070;12.698;2022-10-28T09:27:36;14.80;99.90
14210;DHT22;7188;56.070;12.698;2022-10-28T09:35:44;14.90;99.90
14210;DHT22;7188;56.070;12.698;2022-10-28T09:40:54;15.00;99.90
14210;DHT22;7188;56.070;12.698;2022-10-28T09:43:32;15.20;99.90
14210;DHT22;7188;56.070;12.698;2022-10-28T09:46:05;15.40;99.90
14210;DHT22;7188;56.070;12.698;2022-10-28T09:48:42;15.50;99.90
14210;DHT22;7188;56.070;12.698;2022-10-28T09:51:54;15.50;99.90
14210;DHT22;7188;56.070;12.698;2022-10-28T09:54:29;15.60;99.90
14210;DHT22;7188;56.070;12.698;2022-10-28T09:56:56;15.60;99.90
14210;DHT22;7188;56.070;12.698;2022-10-28T09:59:22;15.60;99.90
14210;DHT22;7188;56.070;12.698;2022-10-28T10:01:48;15.60;99.90
14210;DHT22;7188;56.070;12.698;2022-10-28T10:04:19;15.60;96.30
14210;DHT22;7188;56.070;12.698;2022-10-28T10:06:51;15.70;93.10
14210;DHT22;7188;56.070;12.698;2022-10-28T10:09:25;15.70;93.30
14210;DHT22;7188;56.070;12.698;2022-10-28T10:12:07;15.70;79.40
14210;DHT22;7188;56.070;12.698;2022-10-28T10:14:39;15.70;99.90
14210;DHT22;7188;56.070;12.698;2022-10-28T10:17:19;15.70;66.20
14210;DHT22;7188;56.070;12.698;2022-10-28T10:22:34;15.70;62.50
14210;DHT22;7188;56.070;12.698;2022-10-28T10:25:01;15.70;59.60
14210;DHT22;7188;56.070;12.698;2022-10-28T10:27:28;15.70;93.10
14210;DHT22;7188;56.070;12.698;2022-10-28T10:29:55;15.70;99.80
14210;DHT22;7188;56.070;12.698;2022-10-28T10:32:29;15.80;83.20
14210;DHT22;7188;56.070;12.698;2022-10-28T10:37:27;15.80;19.10
14210;DHT22;7188;56.070;12.698;2022-10-28T10:40:27;15.80;11.40
14210;DHT22;7188;56.070;12.698;2022-10-28T10:43:12;15.70;27.60
14210;DHT22;7188;56.070;12.698;2022-10-28T10:45:38;15.90;16.70
14210;DHT22;7188;56.070;12.698;2022-10-28T10:48:14;15.90;9.00
14210;DHT22;7188;56.070;12.698;2022-10-28T10:50:44;16.00;1.00
14210;DHT22;7188;56.070;12.698;2022-10-28T10:53:26;16.00;1.00
14210;DHT22;7188;56.070;12.698;2022-10-28T10:56:05;16.10;1.00
14210;DHT22;7188;56.070;12.698;2022-10-28T10:58:50;16.20;1.00
14210;DHT22;7188;56.070;12.698;2022-10-28T11:01:19;16.20;1.00
14210;DHT22;7188;56.070;12.698;2022-10-28T11:04:07;16.20;1.00
14210;DHT22;7188;56.070;12.698;2022-10-28T11:06:41;16.30;1.00
14210;DHT22;7188;56.070;12.698;2022-10-28T11:09:30;16.30;1.00
14210;DHT22;7188;56.070;12.698;2022-10-28T11:11:58;16.40;1.00
14210;DHT22;7188;56.070;12.698;2022-10-28T11:14:28;16.40;1.00
14210;DHT22;7188;56.070;12.698;2022-10-28T11:17:00;16.50;1.00
14210;DHT22;7188;56.070;12.698;2022-10-28T11:19:31;16.50;1.00
14210;DHT22;7188;56.070;12.698;2022-10-28T11:24:36;16.60;1.00
14210;DHT22;7188;56.070;12.698;2022-10-28T11:29:45;16.60;1.00
14210;DHT22;7188;56.070;12.698;2022-10-28T11:43:35;16.80;1.00
14210;DHT22;7188;56.070;12.698;2022-10-28T11:57:59;17.10;99.90
14210;DHT22;7188;56.070;12.698;2022-10-28T12:09:35;17.30;20.90
14210;DHT22;7188;56.070;12.698;2022-10-28T12:12:22;17.40;1.00
14210;DHT22;7188;56.070;12.698;2022-10-28T12:17:44;17.40;1.00
14210;DHT22;7188;56.070;12.698;2022-10-28T12:20:29;17.40;1.00
14210;DHT22;7188;56.070;12.698;2022-10-28T12:23:01;17.50;1.00
14210;DHT22;7188;56.070;12.698;2022-10-28T12:25:30;17.50;1.00
14210;DHT22;7188;56.070;12.698;2022-10-28T12:28:00;17.50;1.00
14210;DHT22;7188;56.070;12.698;2022-10-28T12:30:29;17.50;99.90
14210;DHT22;7188;56.070;12.698;2022-10-28T12:33:06;17.50;99.90
14210;DHT22;7188;56.070;12.698;2022-10-28T12:35:37;17.40;1.00
14210;DHT22;7188;56.070;12.698;2022-10-28T12:40:54;17.50;1.00
14210;DHT22;7188;56.070;12.698;2022-10-28T12:44:25;17.50;1.00
14210;DHT22;7188;56.070;12.698;2022-10-28T12:49:46;17.60;45.40
14210;DHT22;7188;56.070;12.698;2022-10-28T12:57:42;17.50;49.00
14210;DHT22;7188;56.070;12.698;2022-10-28T13:00:22;17.40;99.90
14210;DHT22;7188;56.070;12.698;2022-10-28T13:03:04;17.30;99.90
14210;DHT22;7188;56.070;12.698;2022-10-28T13:22:18;17.00;1.00
14210;DHT22;7188;56.070;12.698;2022-10-28T13:25:23;17.00;1.00
14210;DHT22;7188;56.070;12.698;2022-10-28T13:27:56;17.10;1.00
14210;DHT22;7188;56.070;12.698;2022-10-28T13:30:23;17.20;1.00
14210;DHT22;7188;56.070;12.698;2022-10-28T13:33:05;17.20;1.00
14210;DHT22;7188;56.070;12.698;2022-10-28T13:35:31;17.20;1.00
14210;DHT22;7188;56.070;12.698;2022-10-28T13:37:58;17.20;1.00
14210;DHT22;7188;56.070;12.698;2022-10-28T13:42:56;17.20;1.00
14210;DHT22;7188;56.070;12.698;2022-10-28T13:45:49;17.20;1.00
14210;DHT22;7188;56.070;12.698;2022-10-28T13:56:36;17.10;1.00
14210;DHT22;7188;56.070;12.698;2022-10-28T14:06:44;17.10;1.00
14210;DHT22;7188;56.070;12.698;2022-10-28T14:09:22;17.10;1.00
14210;DHT22;7188;56.070;12.698;2022-10-28T14:12:30;17.00;1.00
14210;DHT22;7188;56.070;12.698;2022-10-28T14:15:03;17.00;1.00
14210;DHT22;7188;56.070;12.698;2022-10-28T14:18:19;17.00;1.00
14210;DHT22;7188;56.070;12.698;2022-10-28T14:22:54;16.80;1.00
14210;DHT22;7188;56.070;12.698;2022-10-28T14:52:39;16.20;1.00
14210;DHT22;7188;56.070;12.698;2022-10-28T14:55:06;16.10;1.00
14210;DHT22;7188;56.070;12.698;2022-10-28T14:57:33;16.10;3.10
14210;DHT22;7188;56.070;12.698;2022-10-28T15:00:06;16.20;37.80
14210;DHT22;7188;56.070;12.698;2022-10-28T15:02:34;16.10;51.90
14210;DHT22;7188;56.070;12.698;2022-10-28T15:05:15;16.00;62.10
14210;DHT22;7188;56.070;12.698;2022-10-28T15:07:41;16.00;91.20
14210;DHT22;7188;56.070;12.698;2022-10-28T15:10:14;16.00;99.90
14210;DHT22;7188;56.070;12.698;2022-10-28T15:12:42;15.90;99.90
14210;DHT22;7188;56.070;12.698;2022-10-28T15:15:21;15.80;99.90
14210;DHT22;7188;56.070;12.698;2022-10-28T15:17:47;15.80;99.90
14210;DHT22;7188;56.070;12.698;2022-10-28T15:20:27;15.70;99.90
14210;DHT22;7188;56.070;12.698;2022-10-28T15:23:09;15.70;99.90
14210;DHT22;7188;56.070;12.698;2022-10-28T15:25:35;15.70;99.90
14210;DHT22;7188;56.070;12.698;2022-10-28T15:28:00;15.60;99.90
14210;DHT22;7188;56.070;12.698;2022-10-28T15:30:26;15.60;99.90
14210;DHT22;7188;56.070;12.698;2022-10-28T15:33:05;15.50;99.90
14210;DHT22;7188;56.070;12.698;2022-10-28T15:35:40;15.40;99.90
14210;DHT22;7188;56.070;12.698;2022-10-28T15:38:31;15.40;99.90
14210;DHT22;7188;56.070;12.698;2022-10-28T15:40:57;15.30;99.90
14210;DHT22;7188;56.070;12.698;2022-10-28T15:43:28;15.20;99.90
14210;DHT22;7188;56.070;12.698;2022-10-28T15:46:10;15.20;99.90
14210;DHT22;7188;56.070;12.698;2022-10-28T15:48:39;15.10;99.90
14210;DHT22;7188;56.070;12.698;2022-10-28T15:51:16;15.00;99.90
14210;DHT22;7188;56.070;12.698;2022-10-28T15:53:43;14.90;99.90
14210;DHT22;7188;56.070;12.698;2022-10-28T15:56:25;14.80;99.90
14210;DHT22;7188;56.070;12.698;2022-10-28T16:01:40;14.70;99.90
14210;DHT22;7188;56.070;12.698;2022-10-28T16:07:06;14.60;99.90
14210;DHT22;7188;56.070;12.698;2022-10-28T16:09:35;14.60;99.90
14210;DHT22;7188;56.070;12.698;2022-10-28T16:12:03;14.50;99.90
14210;DHT22;7188;56.070;12.698;2022-10-28T16:17:10;14.50;99.90
14210;DHT22;7188;56.070;12.698;2022-10-28T16:19:50;14.40;99.90
14210;DHT22;7188;56.070;12.698;2022-10-28T16:22:17;14.40;99.90
14210;DHT22;7188;56.070;12.698;2022-10-28T16:24:55;14.40;99.90
14210;DHT22;7188;56.070;12.698;2022-10-28T16:27:28;14.30;99.90
14210;DHT22;7188;56.070;12.698;2022-10-28T16:29:54;14.30;99.90
14210;DHT22;7188;56.070;12.698;2022-10-28T16:32:28;14.30;99.90
14210;DHT22;7188;56.070;12.698;2022-10-28T16:34:55;14.30;99.90
14210;DHT22;7188;56.070;12.698;2022-10-28T16:37:25;14.20;99.90
14210;DHT22;7188;56.070;12.698;2022-10-28T16:39:52;14.20;99.90
14210;DHT22;7188;56.070;12.698;2022-10-28T16:42:18;14.20;99.90
14210;DHT22;7188;56.070;12.698;2022-10-28T16:44:44;14.20;99.90
14210;DHT22;7188;56.070;12.698;2022-10-28T16:47:15;14.10;99.90
14210;DHT22;7188;56.070;12.698;2022-10-28T16:49:41;14.10;99.90
14210;DHT22;7188;56.070;12.698;2022-10-28T16:52:16;14.10;99.90
14210;DHT22;7188;56.070;12.698;2022-10-28T16:54:42;14.10;99.90
14210;DHT22;7188;56.070;12.698;2022-10-28T16:57:07;14.10;99.90
14210;DHT22;7188;56.070;12.698;2022-10-28T16:59:33;14.10;99.90
14210;DHT22;7188;56.070;12.698;2022-10-28T17:01:59;14.10;99.90
14210;DHT22;7188;56.070;12.698;2022-10-28T17:04:25;14.10;99.90
14210;DHT22;7188;56.070;12.698;2022-10-28T17:06:50;14.10;99.90
14210;DHT22;7188;56.070;12.698;2022-10-28T17:09:16;14.00;99.90
14210;DHT22;7188;56.070;12.698;2022-10-28T17:11:41;14.00;99.90
14210;DHT22;7188;56.070;12.698;2022-10-28T17:14:07;14.00;99.90
14210;DHT22;7188;56.070;12.698;2022-10-28T17:16:33;14.00;99.90
14210;DHT22;7188;56.070;12.698;2022-10-28T17:18:58;14.00;99.90
14210;DHT22;7188;56.070;12.698;2022-10-28T17:21:24;14.00;99.90
14210;DHT22;7188;56.070;12.698;2022-10-28T17:23:50;14.00;99.90
14210;DHT22;7188;56.070;12.698;2022-10-28T17:26:16;14.00;99.90
14210;DHT22;7188;56.070;12.698;2022-10-28T17:28:41;14.00;99.90
14210;DHT22;7188;56.070;12.698;2022-10-28T17:31:09;14.00;99.90
14210;DHT22;7188;56.070;12.698;2022-10-28T17:33:35;14.00;99.90
14210;DHT22;7188;56.070;12.698;2022-10-28T17:36:04;14.00;99.90
14210;DHT22;7188;56.070;12.698;2022-10-28T17:38:30;14.00;99.90
14210;DHT22;7188;56.070;12.698;2022-10-28T17:40:56;14.00;99.90
14210;DHT22;7188;56.070;12.698;2022-10-28T17:43:22;14.00;99.90
14210;DHT22;7188;56.070;12.698;2022-10-28T17:45:49;14.00;99.90
14210;DHT22;7188;56.070;12.698;2022-10-28T17:48:30;14.00;99.90
14210;DHT22;7188;56.070;12.698;2022-10-28T17:50:55;14.00;99.90
14210;DHT22;7188;56.070;12.698;2022-10-28T17:53:27;14.00;99.90
14210;DHT22;7188;56.070;12.698;2022-10-28T17:55:56;14.00;99.90
14210;DHT22;7188;56.070;12.698;2022-10-28T17:58:23;14.00;99.90
14210;DHT22;7188;56.070;12.698;2022-10-28T18:00:48;14.00;99.90
14210;DHT22;7188;56.070;12.698;2022-10-28T18:03:14;14.00;99.90
14210;DHT22;7188;56.070;12.698;2022-10-28T18:05:39;13.90;99.90
14210;DHT22;7188;56.070;12.698;2022-10-28T18:08:05;14.00;99.90
14210;DHT22;7188;56.070;12.698;2022-10-28T18:10:31;13.90;99.90
14210;DHT22;7188;56.070;12.698;2022-10-28T18:12:56;13.90;99.90
14210;DHT22;7188;56.070;12.698;2022-10-28T18:15:22;13.90;99.90
14210;DHT22;7188;56.070;12.698;2022-10-28T18:17:48;13.90;99.90
14210;DHT22;7188;56.070;12.698;2022-10-28T18:20:14;13.90;99.90
14210;DHT22;7188;56.070;12.698;2022-10-28T18:22:40;13.90;99.90
14210;DHT22;7188;56.070;12.698;2022-10-28T18:25:06;13.80;99.90
14210;DHT22;7188;56.070;12.698;2022-10-28T18:27:31;13.90;99.90
14210;DHT22;7188;56.070;12.698;2022-10-28T18:29:57;13.80;99.90
14210;DHT22;7188;56.070;12.698;2022-10-28T18:32:23;13.80;99.90
14210;DHT22;7188;56.070;12.698;2022-10-28T18:34:48;13.80;99.90
14210;DHT22;7188;56.070;12.698;2022-10-28T18:37:14;13.80;99.90
14210;DHT22;7188;56.070;12.698;2022-10-28T18:39:39;13.70;99.90
14210;DHT22;7188;56.070;12.698;2022-10-28T18:42:05;13.70;99.90
14210;DHT22;7188;56.070;12.698;2022-10-28T18:44:31;13.70;99.90
14210;DHT22;7188;56.070;12.698;2022-10-28T18:46:57;13.70;99.90
14210;DHT22;7188;56.070;12.698;2022-10-28T18:49:23;13.60;99.90
14210;DHT22;7188;56.070;12.698;2022-10-28T18:51:48;13.60;99.90
14210;DHT22;7188;56.070;12.698;2022-10-28T18:54:14;13.50;99.90
14210;DHT22;7188;56.070;12.698;2022-10-28T18:56:39;13.50;99.90